createdAt,value
2018-04-22T00:01:59.817Z,17.20
2018-04-22T00:04:33.411Z,17.11
2018-04-22T00:07:07.057Z,17.11
2018-04-22T00:09:40.663Z,17.11
2018-04-22T00:12:14.244Z,17.14
2018-04-22T00:14:48.928Z,17.13
2018-04-22T00:17:23.608Z,17.20
2018-04-22T00:19:57.413Z,17.25
2018-04-22T00:22:30.989Z,17.23
2018-04-22T00:25:04.682Z,17.22
2018-04-22T00:27:38.459Z,17.22
2018-04-22T00:30:12.101Z,17.19
2018-04-22T00:32:45.649Z,17.21
2018-04-22T00:35:19.308Z,17.12
2018-04-22T00:37:53.040Z,17.12
2018-04-22T00:40:26.824Z,17.08
2018-04-22T00:43:00.512Z,17.13
2018-04-22T00:45:34.232Z,17.18
2018-04-22T00:48:08.003Z,17.12
2018-04-22T00:50:43.784Z,17.16
2018-04-22T00:53:17.352Z,17.21
2018-04-22T00:55:51.091Z,17.14
2018-04-22T00:58:24.692Z,17.15
2018-04-22T01:00:58.218Z,17.12
2018-04-22T01:03:31.716Z,17.05
2018-04-22T01:06:05.241Z,17.05
2018-04-22T01:08:38.820Z,16.98
2018-04-22T01:11:12.604Z,17.00
2018-04-22T01:13:47.144Z,16.93
2018-04-22T01:16:20.686Z,16.90
2018-04-22T01:18:54.212Z,16.83
2018-04-22T01:21:27.944Z,16.96
2018-04-22T01:24:01.564Z,16.93
2018-04-22T01:26:35.180Z,16.93
2018-04-22T01:29:08.935Z,16.96
2018-04-22T01:31:42.623Z,17.14
2018-04-22T01:34:16.540Z,17.12
2018-04-22T01:36:50.140Z,17.12
2018-04-22T01:39:23.715Z,17.12
2018-04-22T01:41:57.237Z,17.26
2018-04-22T01:44:30.897Z,17.29
2018-04-22T01:47:04.404Z,17.27
2018-04-22T01:49:38.205Z,17.28
2018-04-22T01:52:11.852Z,17.25
2018-04-22T01:54:45.506Z,17.19
2018-04-22T01:57:19.319Z,17.23
2018-04-22T01:59:52.939Z,17.23
2018-04-22T02:02:26.688Z,17.28
2018-04-22T02:05:00.302Z,17.23
2018-04-22T02:07:33.939Z,17.18
2018-04-22T02:10:07.572Z,17.22
2018-04-22T02:12:41.123Z,17.14
2018-04-22T02:15:14.828Z,17.03
2018-04-22T02:17:48.517Z,17.14
2018-04-22T02:20:22.142Z,17.15
2018-04-22T02:22:55.914Z,17.27
2018-04-22T02:25:29.703Z,17.22
2018-04-22T02:28:03.523Z,17.31
2018-04-22T02:30:37.224Z,17.34
2018-04-22T02:33:10.808Z,17.25
2018-04-22T02:35:44.431Z,17.22
2018-04-22T02:38:18.099Z,17.23
2018-04-22T02:40:51.687Z,17.35
2018-04-22T02:43:25.343Z,17.32
2018-04-22T02:45:58.925Z,17.28
2018-04-22T02:48:32.715Z,17.34
2018-04-22T02:51:06.233Z,17.23
2018-04-22T02:53:39.897Z,17.28
2018-04-22T02:56:13.474Z,17.24
2018-04-22T02:58:47.087Z,17.21
2018-04-22T03:01:20.580Z,17.19
2018-04-22T03:03:54.129Z,17.22
2018-04-22T03:06:27.712Z,17.20
2018-04-22T03:09:01.236Z,17.11
2018-04-22T03:11:34.887Z,17.10
2018-04-22T03:14:08.468Z,17.03
2018-04-22T03:16:41.995Z,17.06
2018-04-22T03:19:15.551Z,17.01
2018-04-22T03:21:49.255Z,17.08
2018-04-22T03:24:22.756Z,17.02
2018-04-22T03:26:56.403Z,17.01
2018-04-22T03:29:30.103Z,17.03
2018-04-22T03:32:03.690Z,17.05
2018-04-22T03:34:37.437Z,16.99
2018-04-22T03:37:11.368Z,16.90
2018-04-22T03:39:45.117Z,16.92
2018-04-22T03:42:18.624Z,16.93
2018-04-22T03:44:52.404Z,17.02
2018-04-22T03:47:26.024Z,16.92
2018-04-22T03:49:59.575Z,16.79
2018-04-22T03:52:33.172Z,16.78
2018-04-22T03:55:06.992Z,16.75
2018-04-22T03:57:40.554Z,16.73
2018-04-22T04:00:14.299Z,16.75
2018-04-22T04:02:47.960Z,16.77
2018-04-22T04:05:21.515Z,16.67
2018-04-22T04:07:55.071Z,16.66
2018-04-22T04:10:29.119Z,16.68
2018-04-22T04:13:02.750Z,16.67
2018-04-22T04:15:36.275Z,16.60
2018-04-22T04:21:33.895Z,16.48
2018-04-22T04:27:19.369Z,16.51
2018-04-22T04:29:53.165Z,16.45
2018-04-22T04:32:26.840Z,16.62
2018-04-22T04:35:00.595Z,16.54
2018-04-22T04:37:34.140Z,16.52
2018-04-22T04:40:07.707Z,16.49
2018-04-22T04:42:41.377Z,16.58
2018-04-22T04:45:14.982Z,16.65
2018-04-22T04:47:48.576Z,16.63
2018-04-22T04:50:22.423Z,16.63
2018-04-22T04:52:56.084Z,16.58
2018-04-22T04:55:29.783Z,16.66
2018-04-22T04:58:03.384Z,16.70
2018-04-22T05:00:37.040Z,16.75
2018-04-22T05:03:10.788Z,16.79
2018-04-22T05:05:44.443Z,16.90
2018-04-22T05:08:17.967Z,16.90
2018-04-22T05:10:51.520Z,16.92
2018-04-22T05:13:25.196Z,16.98
2018-04-22T05:15:59.018Z,17.08
2018-04-22T05:18:32.801Z,17.09
2018-04-22T05:21:06.383Z,17.27
2018-04-22T05:23:40.052Z,17.29
2018-04-22T05:26:13.584Z,17.42
2018-04-22T05:28:47.378Z,17.45
2018-04-22T05:31:20.979Z,17.44
2018-04-22T05:33:54.511Z,17.55
2018-04-22T05:36:28.078Z,17.60
2018-04-22T05:39:01.842Z,17.67
2018-04-22T05:41:35.395Z,17.68
2018-04-22T05:44:09.012Z,17.76
2018-04-22T05:46:42.650Z,17.85
2018-04-22T05:49:16.217Z,17.94
2018-04-22T05:51:49.751Z,18.02
2018-04-22T05:54:23.369Z,18.34
2018-04-22T05:56:56.899Z,18.93
2018-04-22T05:59:30.672Z,19.45
2018-04-22T06:02:04.306Z,19.64
2018-04-22T06:04:37.816Z,19.84
2018-04-22T06:07:11.440Z,19.91
2018-04-22T06:09:45.058Z,20.49
2018-04-22T06:12:18.808Z,20.62
2018-04-22T06:14:52.362Z,20.65
2018-04-22T06:17:26.066Z,20.91
2018-04-22T06:19:59.705Z,21.15
2018-04-22T06:22:33.203Z,21.58
2018-04-22T06:25:06.973Z,22.11
2018-04-22T06:27:40.570Z,22.32
2018-04-22T06:30:14.139Z,22.72
2018-04-22T06:32:47.939Z,23.10
2018-04-22T06:35:21.652Z,23.07
2018-04-22T06:37:55.461Z,23.44
2018-04-22T06:40:29.146Z,22.96
2018-04-22T06:43:02.908Z,23.24
2018-04-22T06:45:36.601Z,23.41
2018-04-22T06:48:10.332Z,23.87
2018-04-22T06:50:43.923Z,24.56
2018-04-22T06:53:17.613Z,25.30
2018-04-22T06:55:51.170Z,25.51
2018-04-22T06:58:24.752Z,25.02
2018-04-22T07:00:58.513Z,25.02
2018-04-22T07:03:32.166Z,25.07
2018-04-22T07:06:05.660Z,25.31
2018-04-22T07:08:39.355Z,25.51
2018-04-22T07:11:13.260Z,25.82
2018-04-22T07:13:46.792Z,25.89
2018-04-22T07:16:20.371Z,25.41
2018-04-22T07:18:54.044Z,25.00
2018-04-22T07:21:27.836Z,25.90
2018-04-22T07:24:01.383Z,25.24
2018-04-22T07:26:34.961Z,24.98
2018-04-22T07:29:08.648Z,26.17
2018-04-22T07:31:42.404Z,26.33
2018-04-22T07:34:15.924Z,26.65
2018-04-22T07:36:49.733Z,26.53
2018-04-22T07:39:23.291Z,27.79
2018-04-22T07:41:57.072Z,28.61
2018-04-22T07:44:30.716Z,29.02
2018-04-22T07:47:04.512Z,29.20
2018-04-22T07:49:38.126Z,29.08
2018-04-22T07:52:11.883Z,30.04
2018-04-22T07:54:45.417Z,29.52
2018-04-22T07:57:19.236Z,28.56
2018-04-22T07:59:52.952Z,28.57
2018-04-22T08:02:26.565Z,29.55
2018-04-22T08:05:00.313Z,29.00
2018-04-22T08:07:34.058Z,27.69
2018-04-22T08:10:07.725Z,27.70
2018-04-22T08:12:41.468Z,29.13
2018-04-22T08:15:15.257Z,29.40
2018-04-22T08:17:48.915Z,29.91
2018-04-22T08:20:22.748Z,30.82
2018-04-22T08:22:56.376Z,31.20
2018-04-22T08:25:30.041Z,29.17
2018-04-22T08:28:03.656Z,28.78
2018-04-22T08:30:37.255Z,29.15
2018-04-22T08:33:10.972Z,29.32
2018-04-22T08:35:44.644Z,28.29
2018-04-22T08:38:18.290Z,30.79
2018-04-22T08:40:52.076Z,29.19
2018-04-22T08:43:25.721Z,30.39
2018-04-22T08:45:59.312Z,28.56
2018-04-22T08:48:32.819Z,31.26
2018-04-22T08:51:06.655Z,31.94
2018-04-22T08:53:40.399Z,30.84
2018-04-22T08:56:13.908Z,32.82
2018-04-22T08:58:47.496Z,33.59
2018-04-22T09:01:21.394Z,34.05
2018-04-22T09:03:55.056Z,32.15
2018-04-22T09:06:28.636Z,31.76
2018-04-22T09:09:02.400Z,33.45
2018-04-22T09:11:35.935Z,31.40
2018-04-22T09:14:09.667Z,31.08
2018-04-22T09:16:43.595Z,30.46
2018-04-22T09:19:17.224Z,30.59
2018-04-22T09:21:50.868Z,29.49
2018-04-22T09:24:24.521Z,29.70
2018-04-22T09:26:58.183Z,31.41
2018-04-22T09:29:31.916Z,30.78
2018-04-22T09:32:05.507Z,29.32
2018-04-22T09:34:39.028Z,28.67
2018-04-22T09:37:12.792Z,28.64
2018-04-22T09:39:46.392Z,30.63
2018-04-22T09:42:20.091Z,30.01
2018-04-22T09:44:53.818Z,31.11
2018-04-22T09:47:27.340Z,29.64
2018-04-22T09:50:00.864Z,28.48
2018-04-22T09:52:34.547Z,27.52
2018-04-22T09:55:08.185Z,27.17
2018-04-22T09:57:41.788Z,29.01
2018-04-22T10:00:20.883Z,28.08
2018-04-22T10:02:55.463Z,29.00
2018-04-22T10:05:34.956Z,28.20
2018-04-22T10:08:08.491Z,30.19
2018-04-22T10:10:42.128Z,32.91
2018-04-22T10:13:15.900Z,30.76
2018-04-22T10:15:49.484Z,31.01
2018-04-22T10:18:23.270Z,31.77
2018-04-22T10:20:56.784Z,31.40
2018-04-22T10:23:30.596Z,32.21
2018-04-22T10:26:04.211Z,29.71
2018-04-22T10:28:37.994Z,29.98
2018-04-22T10:31:11.760Z,33.37
2018-04-22T10:33:45.348Z,33.52
2018-04-22T10:36:18.959Z,33.54
2018-04-22T10:38:52.648Z,34.02
2018-04-22T10:41:26.248Z,33.37
2018-04-22T10:43:59.865Z,31.06
2018-04-22T10:46:33.385Z,30.94
2018-04-22T10:49:07.172Z,31.17
2018-04-22T10:51:40.832Z,28.57
2018-04-22T10:54:14.583Z,31.44
2018-04-22T10:56:48.383Z,29.81
2018-04-22T10:59:22.144Z,29.36
2018-04-22T11:01:56.124Z,29.62
2018-04-22T11:04:29.647Z,29.58
2018-04-22T11:07:03.255Z,29.16
2018-04-22T11:09:36.889Z,27.52
2018-04-22T11:12:10.555Z,28.27
2018-04-22T11:14:44.191Z,28.96
2018-04-22T11:17:17.728Z,29.31
2018-04-22T11:19:51.219Z,29.06
2018-04-22T11:22:24.763Z,28.24
2018-04-22T11:24:58.360Z,28.05
2018-04-22T11:27:31.975Z,27.41
2018-04-22T11:30:05.690Z,28.26
2018-04-22T11:32:40.048Z,28.76
2018-04-22T11:35:13.583Z,28.58
2018-04-22T11:37:47.236Z,28.92
2018-04-22T11:40:21.050Z,28.14
2018-04-22T11:42:54.631Z,28.04
2018-04-22T11:45:28.284Z,28.14
2018-04-22T11:48:01.808Z,27.99
2018-04-22T11:50:35.334Z,27.47
2018-04-22T11:53:09.008Z,27.84
2018-04-22T11:55:42.679Z,27.89
2018-04-22T11:58:16.236Z,27.93
2018-04-22T12:00:49.979Z,27.26
2018-04-22T12:03:23.510Z,26.41
2018-04-22T12:05:57.193Z,27.20
2018-04-22T12:08:30.811Z,27.13
2018-04-22T12:11:04.556Z,27.39
2018-04-22T12:13:38.091Z,27.52
2018-04-22T12:16:11.868Z,27.93
2018-04-22T12:18:45.562Z,27.29
2018-04-22T12:21:19.366Z,27.75
2018-04-22T12:23:52.956Z,27.68
2018-04-22T12:26:26.734Z,27.49
2018-04-22T12:29:00.393Z,26.82
2018-04-22T12:31:34.411Z,27.43
2018-04-22T12:34:08.218Z,27.49
2018-04-22T12:36:42.008Z,27.77
2018-04-22T12:39:15.787Z,27.72
2018-04-22T12:41:49.319Z,27.49
2018-04-22T12:44:22.904Z,27.25
2018-04-22T12:46:56.668Z,27.07
2018-04-22T12:49:30.224Z,26.90
2018-04-22T12:52:03.964Z,26.67
2018-04-22T12:57:19.151Z,26.59
2018-04-22T12:59:52.656Z,26.75
2018-04-22T13:02:26.419Z,26.66
2018-04-22T13:05:00.001Z,26.29
2018-04-22T13:07:33.623Z,26.28
2018-04-22T13:10:07.181Z,26.14
2018-04-22T13:12:41.013Z,26.00
2018-04-22T13:15:14.800Z,25.72
2018-04-22T13:17:48.518Z,25.48
2018-04-22T13:20:22.059Z,25.57
2018-04-22T13:22:55.603Z,25.34
2018-04-22T13:25:29.388Z,25.11
2018-04-22T13:28:03.110Z,24.86
2018-04-22T13:30:36.900Z,24.56
2018-04-22T13:33:10.441Z,22.25
2018-04-22T13:35:44.170Z,20.40
2018-04-22T13:38:17.780Z,19.76
2018-04-22T13:40:51.331Z,18.45
2018-04-22T13:43:25.120Z,18.40
2018-04-22T13:45:58.860Z,-145.23
2018-04-22T13:48:32.527Z,21.37
2018-04-22T13:51:06.229Z,-145.23
2018-04-22T13:53:39.972Z,-145.23
2018-04-22T13:56:13.763Z,-145.23
2018-04-22T13:58:47.380Z,-145.23
2018-04-22T14:01:21.019Z,-145.23
2018-04-22T14:03:54.814Z,-145.23
2018-04-22T14:06:28.519Z,21.72
2018-04-22T14:09:02.280Z,21.52
2018-04-22T14:11:35.956Z,21.10
2018-04-22T14:14:09.552Z,20.90
2018-04-22T14:16:43.067Z,21.02
2018-04-22T14:19:16.556Z,22.12
2018-04-22T14:21:50.087Z,22.57
2018-04-22T14:24:23.653Z,22.28
2018-04-22T14:26:57.202Z,22.05
2018-04-22T14:29:30.888Z,21.28
2018-04-22T14:32:04.812Z,21.08
2018-04-22T14:34:38.604Z,21.04
2018-04-22T14:43:11.188Z,21.20
2018-04-22T14:45:56.852Z,23.00
2018-04-22T14:48:30.473Z,23.73
2018-04-22T14:51:04.012Z,23.66
2018-04-22T14:53:37.552Z,22.43
2018-04-22T14:56:11.332Z,22.29
2018-04-22T14:58:45.128Z,21.64
2018-04-22T15:01:18.824Z,21.15
2018-04-22T15:03:52.536Z,21.02
2018-04-22T15:06:26.040Z,21.41
2018-04-22T15:08:59.566Z,21.37
2018-04-22T15:11:33.376Z,21.52
2018-04-22T15:14:06.985Z,21.56
2018-04-22T15:16:40.764Z,21.63
2018-04-22T15:19:14.356Z,21.51
2018-04-22T15:21:48.046Z,21.34
2018-04-22T15:24:21.588Z,21.39
2018-04-22T15:26:55.351Z,22.21
2018-04-22T15:29:28.851Z,22.78
2018-04-22T15:32:02.551Z,22.86
2018-04-22T15:34:36.231Z,23.06
2018-04-22T15:37:09.760Z,23.60
2018-04-22T15:39:43.536Z,23.30
2018-04-22T15:42:17.103Z,23.41
2018-04-22T15:44:50.748Z,23.08
2018-04-22T15:47:24.296Z,22.84
2018-04-22T15:49:57.991Z,23.06
2018-04-22T15:52:31.560Z,23.11
2018-04-22T15:55:05.200Z,22.86
2018-04-22T15:57:38.708Z,22.69
2018-04-22T16:00:12.488Z,22.73
2018-04-22T16:02:46.046Z,22.64
2018-04-22T16:05:19.724Z,22.52
2018-04-22T16:07:53.404Z,22.92
2018-04-22T16:10:27.135Z,22.80
2018-04-22T16:13:00.760Z,22.90
2018-04-22T16:15:34.302Z,22.86
2018-04-22T16:18:08.104Z,23.20
2018-04-22T16:20:41.711Z,23.34
2018-04-22T16:23:15.396Z,23.23
2018-04-22T16:25:49.203Z,23.35
2018-04-22T16:28:22.880Z,23.45
2018-04-22T16:30:56.442Z,23.41
2018-04-22T16:33:30.131Z,23.45
2018-04-22T16:36:03.655Z,23.45
2018-04-22T16:38:37.288Z,23.49
2018-04-22T16:41:10.821Z,23.37
2018-04-22T16:43:44.571Z,23.34
2018-04-22T16:46:18.308Z,23.25
2018-04-22T16:48:52.065Z,23.04
2018-04-22T16:51:25.688Z,23.29
2018-04-22T16:53:59.327Z,23.31
2018-04-22T16:56:32.837Z,23.22
2018-04-22T16:59:06.384Z,22.78
2018-04-22T17:01:40.053Z,23.01
2018-04-22T17:04:13.805Z,23.05
2018-04-22T17:06:47.368Z,23.05
2018-04-22T17:09:21.195Z,23.04
2018-04-22T17:11:54.832Z,22.80
2018-04-22T17:14:28.650Z,23.00
2018-04-22T17:17:02.273Z,23.26
2018-04-22T17:19:35.815Z,23.35
2018-04-22T17:22:09.456Z,23.51
2018-04-22T17:24:43.232Z,23.46
2018-04-22T17:27:16.895Z,23.37
2018-04-22T17:29:50.715Z,23.14
2018-04-22T17:32:24.364Z,23.51
2018-04-22T17:34:58.327Z,23.42
2018-04-22T17:37:31.971Z,23.52
2018-04-22T17:40:05.561Z,23.22
2018-04-22T17:42:39.102Z,23.26
2018-04-22T17:45:12.938Z,23.33
2018-04-22T17:47:46.629Z,23.27
2018-04-22T17:50:20.376Z,23.34
2018-04-22T17:52:53.918Z,23.30
2018-04-22T17:55:27.668Z,22.97
2018-04-22T17:58:01.251Z,22.96
2018-04-22T18:00:34.923Z,22.82
2018-04-22T18:03:08.667Z,23.02
2018-04-22T18:05:42.371Z,23.08
2018-04-22T18:08:15.914Z,22.44
2018-04-22T18:10:49.499Z,22.49
2018-04-22T18:13:23.131Z,22.90
2018-04-22T18:15:56.859Z,22.87
2018-04-22T18:18:30.536Z,22.83
2018-04-22T18:21:04.276Z,22.53
2018-04-22T18:23:37.956Z,22.08
2018-04-22T18:26:11.773Z,21.91
2018-04-22T18:28:45.319Z,22.23
2018-04-22T18:31:18.956Z,22.21
2018-04-22T18:33:52.677Z,22.14
2018-04-22T18:36:26.287Z,22.10
2018-04-22T18:38:59.799Z,21.91
2018-04-22T18:41:33.315Z,22.03
2018-04-22T18:44:07.060Z,21.66
2018-04-22T18:46:40.684Z,21.79
2018-04-22T18:49:14.352Z,21.62
2018-04-22T18:51:47.972Z,21.71
2018-04-22T18:54:21.596Z,21.58
2018-04-22T18:56:55.205Z,21.67
2018-04-22T18:59:29.032Z,21.52
2018-04-22T19:02:02.565Z,21.61
2018-04-22T19:04:36.196Z,21.53
2018-04-22T19:10:08.555Z,21.46
2018-04-22T19:12:42.172Z,21.57
2018-04-22T19:15:15.723Z,21.76
2018-04-22T19:17:49.284Z,21.75
2018-04-22T19:20:23.042Z,21.85
2018-04-22T19:22:56.688Z,21.66
2018-04-22T19:25:30.309Z,21.75
2018-04-22T19:28:03.860Z,21.67
2018-04-22T19:30:37.639Z,21.75
2018-04-22T19:33:11.296Z,21.90
2018-04-22T19:35:45.048Z,21.94
2018-04-22T19:38:18.884Z,21.95
2018-04-22T19:40:52.664Z,22.03
2018-04-22T19:43:26.241Z,22.03
2018-04-22T19:46:00.084Z,22.12
2018-04-22T19:48:33.792Z,22.07
2018-04-22T19:51:07.353Z,21.96
2018-04-22T19:53:40.933Z,21.77
2018-04-22T19:56:14.556Z,21.79
2018-04-22T19:58:48.212Z,21.75
2018-04-22T20:01:21.972Z,21.68
2018-04-22T20:03:55.642Z,21.65
2018-04-22T20:06:29.312Z,21.59
2018-04-22T20:09:03.072Z,21.50
2018-04-22T20:11:36.741Z,21.45
2018-04-22T20:14:10.332Z,21.29
2018-04-22T20:16:44.231Z,21.15
2018-04-22T20:19:17.878Z,21.09
2018-04-22T20:21:51.489Z,20.86
2018-04-22T20:24:25.245Z,20.90
2018-04-22T20:26:58.970Z,20.89
2018-04-22T20:29:32.529Z,20.64
2018-04-22T20:32:06.433Z,20.57
2018-04-22T20:34:40.039Z,20.40
2018-04-22T20:37:13.660Z,20.63
2018-04-22T20:39:47.411Z,20.55
2018-04-22T20:42:21.084Z,20.44
2018-04-22T20:44:54.716Z,20.34
2018-04-22T20:47:28.421Z,20.38
2018-04-22T20:50:01.966Z,20.27
2018-04-22T20:52:35.512Z,20.24
2018-04-22T20:55:09.419Z,20.15
2018-04-22T20:57:43.142Z,20.03
2018-04-22T21:00:16.843Z,19.90
2018-04-22T21:02:50.500Z,19.88
2018-04-22T21:05:24.962Z,19.82
2018-04-22T21:07:58.671Z,19.74
2018-04-22T21:10:32.316Z,19.83
2018-04-22T21:13:06.027Z,20.03
2018-04-22T21:15:39.689Z,20.12
2018-04-22T21:18:13.348Z,19.96
2018-04-22T21:20:47.062Z,20.03
2018-04-22T21:23:20.808Z,20.26
2018-04-22T21:25:54.593Z,20.21
2018-04-22T21:28:28.311Z,19.99
2018-04-22T21:31:02.037Z,20.15
2018-04-22T21:33:35.759Z,20.23
2018-04-22T21:36:09.377Z,20.33
2018-04-22T21:38:43.101Z,20.20
2018-04-22T21:41:16.868Z,20.46
2018-04-22T21:43:50.553Z,20.49
2018-04-22T21:46:24.261Z,20.59
2018-04-22T21:48:57.923Z,20.62
2018-04-22T21:51:31.642Z,20.57
2018-04-22T21:54:05.369Z,20.53
2018-04-22T21:56:38.949Z,20.59
2018-04-22T21:59:12.641Z,20.69
2018-04-22T22:01:46.349Z,20.67
2018-04-22T22:04:20.113Z,20.68
2018-04-22T22:06:53.747Z,20.63
2018-04-22T22:09:27.432Z,20.57
2018-04-22T22:12:01.217Z,20.70
2018-04-22T22:14:34.821Z,20.54
2018-04-22T22:17:08.567Z,20.42
2018-04-22T22:19:42.188Z,20.30
2018-04-22T22:22:15.905Z,20.10
2018-04-22T22:24:49.810Z,20.10
2018-04-22T22:27:23.457Z,20.11
2018-04-22T22:29:57.116Z,20.04
2018-04-22T22:32:30.852Z,20.01
2018-04-22T22:35:04.521Z,19.86
2018-04-22T22:37:38.256Z,19.79
2018-04-22T22:40:11.865Z,19.01
2018-04-22T22:42:45.407Z,18.91
2018-04-22T22:45:19.226Z,18.96
2018-04-22T22:47:53.098Z,19.02
2018-04-22T22:50:26.701Z,19.08
2018-04-22T22:53:00.323Z,18.88
2018-04-22T22:55:33.919Z,18.90
2018-04-22T22:58:07.645Z,18.97
2018-04-22T23:00:41.358Z,18.94
2018-04-22T23:03:14.905Z,18.86
2018-04-22T23:05:48.557Z,18.90
2018-04-22T23:08:22.360Z,18.88
2018-04-22T23:10:56.204Z,19.03
2018-04-22T23:13:29.846Z,18.98
2018-04-22T23:16:03.939Z,19.00
2018-04-22T23:18:37.679Z,19.05
2018-04-22T23:21:11.295Z,19.09
2018-04-22T23:23:45.027Z,19.14
2018-04-22T23:26:18.633Z,19.15
2018-04-22T23:28:52.356Z,19.16
2018-04-22T23:31:25.944Z,19.02
2018-04-22T23:33:59.564Z,19.24
2018-04-22T23:36:33.339Z,19.33
2018-04-22T23:39:06.900Z,19.34
2018-04-22T23:41:40.610Z,19.40
2018-04-22T23:44:14.193Z,19.34
2018-04-22T23:46:47.913Z,19.39
2018-04-22T23:49:21.473Z,19.50
2018-04-22T23:51:54.974Z,19.35
2018-04-22T23:54:28.592Z,19.27
2018-04-22T23:57:02.166Z,19.31
2018-04-22T23:59:35.816Z,19.44
